Time;durP1;ratioP1;P1;durP2;ratioP2;P2;SDS_P1;SDS_P2;PMS_P1;PMS_P2;Temp;Humidity;BMP_temperature;BMP_pressure;BME280_temperature;BME280_humidity;BME280_pressure;Samples;Min_cycle;Max_cycle;Signal;HPM_P1;HPM_P2
2022/06/01 00:01:48;;;;;;;20.50;18.50;;;;;;;;;;5053658;28;20575;-29
2022/06/01 00:04:15;;;;;;;21.52;19.42;;;;;;;;;;5054120;28;20041;-29
2022/06/01 00:06:41;;;;;;;21.23;19.20;;;;;;;;;;5053562;28;20123;-29
2022/06/01 00:09:07;;;;;;;21.13;19.10;;;;;;;;;;5053969;28;20126;-30
2022/06/01 00:11:33;;;;;;;20.25;18.15;;;;;;;;;;5053707;28;20059;-29
2022/06/01 00:14:00;;;;;;;20.65;18.58;;;;;;;;;;5053984;28;20037;-29
2022/06/01 00:16:26;;;;;;;22.98;20.70;;;;;;;;;;5053140;28;20041;-32
2022/06/01 00:18:52;;;;;;;19.65;17.42;;;;;;;;;;5052074;28;20661;-30
2022/06/01 00:21:18;;;;;;;21.05;18.85;;;;;;;;;;5056863;28;20037;-33
2022/06/01 00:23:44;;;;;;;21.15;19.05;;;;;;;;;;5064504;28;20048;-32
2022/06/01 00:26:10;;;;;;;22.65;19.45;;;;;;;;;;5072390;28;20573;-32
2022/06/01 00:28:36;;;;;;;20.23;18.10;;;;;;;;;;5067405;28;20114;-34
2022/06/01 00:31:03;;;;;;;21.45;19.25;;;;;;;;;;5070311;28;20035;-34
2022/06/01 00:33:30;;;;;;;23.77;21.35;;;;;;;;;;5070030;28;20032;-32
2022/06/01 00:35:56;;;;;;;20.60;18.60;;;;;;;;;;5073628;28;20041;-33
2022/06/01 00:38:23;;;;;;;19.92;17.70;;;;;;;;;;5065414;28;20116;-33
2022/06/01 00:40:49;;;;;;;21.77;19.63;;;;;;;;;;5054278;28;20456;-32
2022/06/01 00:43:26;;;;;;;20.55;18.33;;;;;;;;;;5069717;28;20048;-34
2022/06/01 00:45:52;;;;;;;21.15;19.05;;;;;;;;;;5062913;28;20043;-33
2022/06/01 00:48:23;;;;;;;21.48;19.48;;;;;;;;;;5078017;28;20501;-31
2022/06/01 00:50:49;;;;;;;22.52;20.23;;;;;;;;;;5081002;28;20047;-32
2022/06/01 00:53:17;;;;;;;21.63;19.40;;;;;;;;;;5078663;28;20043;-34
2022/06/01 00:55:46;;;;;;;20.98;18.95;;;;;;;;;;5067552;28;20043;-32
2022/06/01 00:58:18;;;;;;;21.05;18.95;;;;;;;;;;5070782;28;20065;-31
2022/06/01 01:00:46;;;;;;;20.35;18.38;;;;;;;;;;5067158;28;20101;-35
2022/06/01 01:03:12;;;;;;;21.50;19.08;;;;;;;;;;5060336;28;20119;-33
2022/06/01 01:05:40;;;;;;;20.25;18.15;;;;;;;;;;5059184;28;20037;-31
2022/06/01 01:08:07;;;;;;;21.45;19.20;;;;;;;;;;5070898;28;20127;-32
2022/06/01 01:10:33;;;;;;;20.98;18.90;;;;;;;;;;5065051;28;20033;-33
2022/06/01 01:13:01;;;;;;;21.33;19.23;;;;;;;;;;5060293;28;20041;-32
2022/06/01 01:15:34;;;;;;;21.42;19.13;;;;;;;;;;5071408;28;20051;-33
2022/06/01 01:18:01;;;;;;;22.45;20.25;;;;;;;;;;5073577;28;20098;-33
2022/06/01 01:20:29;;;;;;;22.33;20.05;;;;;;;;;;5063271;28;20042;-31
2022/06/01 01:22:55;;;;;;;20.25;18.25;;;;;;;;;;5081284;28;20048;-32
2022/06/01 01:25:29;;;;;;;19.85;17.98;;;;;;;;;;5075512;28;20040;-33
2022/06/01 01:27:56;;;;;;;;;;;;;;;;;;5062326;28;20036;-33
2022/06/01 01:30:28;;;;;;;21.60;19.45;;;;;;;;;;5078548;28;19920;-32
2022/06/01 01:32:54;;;;;;;20.63;18.58;;;;;;;;;;5078503;28;20169;-33
2022/06/01 01:35:20;;;;;;;21.23;19.23;;;;;;;;;;5083961;28;20438;-33
2022/06/01 01:37:48;;;;;;;21.95;19.80;;;;;;;;;;5067432;28;20119;-32
2022/06/01 01:40:14;;;;;;;22.02;19.88;;;;;;;;;;5062523;28;20115;-34
2022/06/01 01:42:40;;;;;;;21.70;19.63;;;;;;;;;;5065169;28;20046;-33
2022/06/01 01:45:32;;;;;;;23.15;20.85;;;;;;;;;;5063357;28;20041;-33
2022/06/01 01:47:58;;;;;;;24.75;22.25;;;;;;;;;;5068420;28;20458;-33
2022/06/01 01:50:25;;;;;;;22.80;20.50;;;;;;;;;;5061185;28;20405;-33
2022/06/01 01:52:51;;;;;;;21.80;19.70;;;;;;;;;;5061841;28;20040;-32
2022/06/01 01:55:17;;;;;;;24.58;22.08;;;;;;;;;;5075191;28;20508;-32
2022/06/01 01:57:47;;;;;;;23.55;21.25;;;;;;;;;;5071799;28;20062;-33
2022/06/01 02:00:17;;;;;;;24.02;21.15;;;;;;;;;;5060321;28;20040;-32
2022/06/01 02:02:50;;;;;;;23.33;20.92;;;;;;;;;;5057606;28;20041;-32
2022/06/01 02:08:26;;;;;;;23.85;21.58;;;;;;;;;;5065163;28;20045;-32
2022/06/01 02:13:40;;;;;;;25.98;23.38;;;;;;;;;;5061150;28;20036;-34
2022/06/01 02:16:07;;;;;;;24.27;21.88;;;;;;;;;;5063871;28;20036;-32
2022/06/01 02:18:38;;;;;;;26.83;24.20;;;;;;;;;;5064207;28;20036;-33
2022/06/01 02:21:09;;;;;;;25.13;22.58;;;;;;;;;;5058686;28;20079;-33
2022/06/01 02:23:39;;;;;;;25.92;23.27;;;;;;;;;;5063483;28;20553;-31
2022/06/01 02:26:05;;;;;;;26.10;23.45;;;;;;;;;;5064433;28;20086;-32
2022/06/01 02:28:32;;;;;;;27.17;24.30;;;;;;;;;;5073758;28;20417;-32
2022/06/01 02:30:59;;;;;;;24.42;22.02;;;;;;;;;;5068767;28;20099;-31
2022/06/01 02:33:32;;;;;;;25.13;22.65;;;;;;;;;;5065483;28;20073;-34
2022/06/01 02:36:00;;;;;;;26.50;23.83;;;;;;;;;;5070149;28;20059;-33
2022/06/01 02:38:36;;;;;;;25.95;23.27;;;;;;;;;;5068544;28;20040;-31
2022/06/01 02:41:02;;;;;;;25.25;22.77;;;;;;;;;;5053871;28;20453;-31
2022/06/01 02:43:28;;;;;;;25.02;22.58;;;;;;;;;;5066378;28;20044;-31
2022/06/01 02:45:56;;;;;;;23.13;20.92;;;;;;;;;;5063368;28;20040;-32
2022/06/01 02:48:22;;;;;;;24.88;22.48;;;;;;;;;;5075476;28;20043;-33
2022/06/01 02:50:48;;;;;;;23.98;21.67;;;;;;;;;;5072846;28;20614;-32
2022/06/01 02:53:14;;;;;;;24.02;21.75;;;;;;;;;;5072323;28;20040;-33
2022/06/01 02:55:41;;;;;;;23.60;21.20;;;;;;;;;;5071309;28;20035;-32
2022/06/01 02:58:07;;;;;;;23.02;20.67;;;;;;;;;;5069804;28;20428;-32
2022/06/01 03:00:37;;;;;;;22.95;20.67;;;;;;;;;;5063103;28;20044;-31
2022/06/01 03:03:03;;;;;;;22.13;19.90;;;;;;;;;;5073989;28;20433;-32
2022/06/01 03:05:32;;;;;;;23.38;21.17;;;;;;;;;;5074267;28;20031;-33
2022/06/01 03:07:58;;;;;;;22.55;20.25;;;;;;;;;;5071309;28;20044;-31
2022/06/01 03:10:25;;;;;;;21.30;19.20;;;;;;;;;;5062435;28;20045;-33
2022/06/01 03:12:51;;;;;;;22.15;19.90;;;;;;;;;;5066760;28;20033;-32
2022/06/01 03:15:18;;;;;;;22.92;20.73;;;;;;;;;;5080584;28;20041;-32
2022/06/01 03:17:45;;;;;;;21.30;19.23;;;;;;;;;;5075205;28;20044;-32
2022/06/01 03:20:12;;;;;;;22.60;20.30;;;;;;;;;;5077049;28;20047;-33
2022/06/01 03:22:39;;;;;;;22.17;20.05;;;;;;;;;;5083524;28;20036;-32
2022/06/01 03:25:07;;;;;;;22.58;20.48;;;;;;;;;;5076490;28;20036;-33
2022/06/01 03:27:33;;;;;;;22.35;19.98;;;;;;;;;;5052525;28;20041;-32
2022/06/01 03:30:00;;;;;;;23.65;21.23;;;;;;;;;;5076180;28;20071;-34
2022/06/01 03:32:26;;;;;;;24.10;21.83;;;;;;;;;;5075007;28;20056;-32
2022/06/01 03:34:52;;;;;;;22.80;20.65;;;;;;;;;;5063330;28;20031;-31
2022/06/01 03:37:18;;;;;;;23.38;21.15;;;;;;;;;;5081122;28;20410;-32
2022/06/01 03:39:44;;;;;;;23.67;21.27;;;;;;;;;;5069065;28;20048;-33
2022/06/01 03:42:10;;;;;;;24.52;21.92;;;;;;;;;;5077964;28;20529;-32
2022/06/01 03:47:21;;;;;;;24.48;22.10;;;;;;;;;;5076817;28;20040;-33
2022/06/01 03:49:47;;;;;;;24.83;22.52;;;;;;;;;;5071225;28;20039;-31
2022/06/01 03:52:14;;;;;;;26.83;24.15;;;;;;;;;;5072879;28;20087;-32
2022/06/01 03:54:40;;;;;;;26.50;23.83;;;;;;;;;;5066818;28;20115;-33
2022/06/01 03:57:07;;;;;;;26.98;24.08;;;;;;;;;;5070277;28;20119;-32
2022/06/01 03:59:33;;;;;;;27.02;24.45;;;;;;;;;;5069547;28;20044;-32
2022/06/01 04:02:04;;;;;;;23.90;21.55;;;;;;;;;;5064196;28;20041;-30
2022/06/01 04:04:30;;;;;;;25.42;22.73;;;;;;;;;;5069797;28;20044;-29
2022/06/01 04:06:56;;;;;;;27.20;24.48;;;;;;;;;;5070896;28;20071;-32
2022/06/01 04:09:23;;;;;;;27.38;24.67;;;;;;;;;;5062163;28;20041;-32
2022/06/01 04:11:51;;;;;;;27.38;24.40;;;;;;;;;;5059949;28;20513;-33
2022/06/01 04:14:20;;;;;;;26.83;24.17;;;;;;;;;;5054386;28;20098;-33
2022/06/01 04:16:49;;;;;;;28.25;25.42;;;;;;;;;;5076387;28;20087;-33
2022/06/01 04:19:16;;;;;;;29.52;26.63;;;;;;;;;;5080471;28;20036;-31
2022/06/01 04:21:44;;;;;;;29.05;25.95;;;;;;;;;;5061274;28;20438;-33
2022/06/01 04:24:12;;;;;;;27.15;24.42;;;;;;;;;;5077355;28;20058;-34
2022/06/01 04:26:39;;;;;;;30.45;27.35;;;;;;;;;;5074024;28;20044;-32
2022/06/01 04:29:05;;;;;;;26.63;23.88;;;;;;;;;;5069039;28;20054;-33
2022/06/01 04:31:31;;;;;;;28.38;25.58;;;;;;;;;;5059701;28;20491;-32
2022/06/01 04:33:57;;;;;;;28.40;25.45;;;;;;;;;;5073675;28;20547;-34
2022/06/01 04:36:23;;;;;;;25.98;23.38;;;;;;;;;;5074745;28;20045;-30
2022/06/01 04:38:49;;;;;;;27.25;24.58;;;;;;;;;;5072731;28;20037;-31
2022/06/01 04:41:16;;;;;;;30.90;27.77;;;;;;;;;;5077783;28;20043;-32
2022/06/01 04:43:42;;;;;;;29.35;26.30;;;;;;;;;;5068633;28;20029;-32
2022/06/01 04:46:08;;;;;;;30.17;27.08;;;;;;;;;;5075694;28;20663;-31
2022/06/01 04:48:34;;;;;;;29.90;26.75;;;;;;;;;;5075418;28;20063;-35
2022/06/01 04:51:01;;;;;;;28.90;25.98;;;;;;;;;;5068794;28;20494;-32
2022/06/01 04:53:28;;;;;;;29.48;26.38;;;;;;;;;;5073198;28;20074;-34
2022/06/01 04:55:54;;;;;;;29.83;26.67;;;;;;;;;;5076020;28;20040;-31
2022/06/01 04:58:20;;;;;;;28.83;25.92;;;;;;;;;;5067813;28;20099;-31
2022/06/01 05:00:46;;;;;;;28.67;25.77;;;;;;;;;;5060290;28;20052;-31
2022/06/01 05:03:13;;;;;;;28.23;25.33;;;;;;;;;;5064570;28;20068;-32
2022/06/01 05:05:39;;;;;;;28.25;25.45;;;;;;;;;;5074011;28;20036;-31
2022/06/01 05:08:06;;;;;;;29.73;26.45;;;;;;;;;;5075138;28;20461;-30
2022/06/01 05:10:33;;;;;;;30.17;27.02;;;;;;;;;;5073336;28;20048;-34
2022/06/01 05:12:59;;;;;;;30.63;27.55;;;;;;;;;;5075236;28;20032;-30
2022/06/01 05:15:25;;;;;;;32.05;28.85;;;;;;;;;;5072521;28;20045;-30
2022/06/01 05:17:51;;;;;;;29.83;26.80;;;;;;;;;;5075320;28;20071;-31
2022/06/01 05:20:18;;;;;;;31.73;28.42;;;;;;;;;;5072460;28;20045;-32
2022/06/01 05:22:44;;;;;;;31.00;27.80;;;;;;;;;;5072005;28;20173;-35
2022/06/01 05:25:10;;;;;;;29.75;26.70;;;;;;;;;;5079715;28;20068;-31
2022/06/01 05:27:36;;;;;;;31.15;28.00;;;;;;;;;;5075092;28;20040;-32
2022/06/01 05:30:03;;;;;;;30.92;27.92;;;;;;;;;;5064875;28;20148;-33
2022/06/01 05:32:29;;;;;;;30.63;27.48;;;;;;;;;;5065444;28;20035;-31
2022/06/01 05:34:56;;;;;;;29.65;26.70;;;;;;;;;;5074031;28;20036;-33
2022/06/01 05:37:22;;;;;;;30.77;27.58;;;;;;;;;;5071390;28;20125;-32
2022/06/01 05:39:48;;;;;;;29.98;26.88;;;;;;;;;;5078733;28;20039;-32
2022/06/01 05:42:14;;;;;;;30.42;27.33;;;;;;;;;;5065038;28;20503;-30
2022/06/01 05:44:40;;;;;;;30.58;27.27;;;;;;;;;;5062525;28;20090;-31
2022/06/01 05:47:06;;;;;;;28.58;25.77;;;;;;;;;;5069183;28;20407;-31
2022/06/01 05:49:32;;;;;;;32.38;28.95;;;;;;;;;;5074874;28;20044;-30
2022/06/01 05:51:58;;;;;;;29.83;26.67;;;;;;;;;;5078440;28;20040;-31
2022/06/01 05:54:25;;;;;;;28.90;25.88;;;;;;;;;;5074958;28;20046;-34
2022/06/01 05:56:51;;;;;;;28.30;25.40;;;;;;;;;;5073724;28;20081;-33
2022/06/01 05:59:17;;;;;;;30.15;26.98;;;;;;;;;;5069007;28;20508;-33
2022/06/01 06:01:43;;;;;;;29.05;26.13;;;;;;;;;;5070191;28;20037;-30
2022/06/01 06:04:09;;;;;;;29.45;26.35;;;;;;;;;;5070381;28;20119;-32
2022/06/01 06:06:36;;;;;;;28.80;25.30;;;;;;;;;;5074899;28;20127;-33
2022/06/01 06:09:04;;;;;;;27.02;24.25;;;;;;;;;;5083586;28;20040;-31
2022/06/01 06:11:32;;;;;;;28.60;25.70;;;;;;;;;;5078300;28;20060;-32
2022/06/01 06:13:59;;;;;;;28.25;25.38;;;;;;;;;;5078010;28;20035;-33
2022/06/01 06:16:25;;;;;;;26.95;24.30;;;;;;;;;;5077174;28;20037;-31
2022/06/01 06:18:56;;;;;;;25.00;22.45;;;;;;;;;;5070461;28;20501;-32
2022/06/01 06:21:22;;;;;;;24.10;21.77;;;;;;;;;;5075084;28;20394;-32
2022/06/01 06:23:48;;;;;;;24.92;22.27;;;;;;;;;;5077983;28;20119;-33
2022/06/01 06:26:14;;;;;;;25.55;22.73;;;;;;;;;;5075116;28;20562;-34
2022/06/01 06:28:41;;;;;;;24.40;21.90;;;;;;;;;;5074874;28;20028;-32
2022/06/01 06:31:08;;;;;;;23.63;21.23;;;;;;;;;;5073221;28;20044;-33
2022/06/01 06:33:34;;;;;;;22.88;20.58;;;;;;;;;;5060613;28;20494;-33
2022/06/01 06:36:02;;;;;;;21.40;19.30;;;;;;;;;;5066289;28;20037;-33
2022/06/01 06:38:29;;;;;;;21.98;19.67;;;;;;;;;;5071012;28;20040;-32
2022/06/01 06:40:56;;;;;;;22.10;19.88;;;;;;;;;;5062354;28;20037;-34
2022/06/01 06:43:23;;;;;;;21.48;19.30;;;;;;;;;;5073610;28;20130;-36
2022/06/01 06:45:50;;;;;;;21.77;19.58;;;;;;;;;;5062441;28;20032;-34
2022/06/01 06:48:17;;;;;;;20.20;18.10;;;;;;;;;;5078916;28;20089;-32
2022/06/01 06:50:43;;;;;;;18.25;16.33;;;;;;;;;;5065449;28;20075;-33
2022/06/01 06:53:09;;;;;;;19.45;16.98;;;;;;;;;;5063803;28;20033;-32
2022/06/01 06:55:35;;;;;;;19.55;17.60;;;;;;;;;;5074235;28;20048;-33
2022/06/01 06:58:01;;;;;;;18.90;17.08;;;;;;;;;;5062415;28;20395;-33
2022/06/01 07:00:28;;;;;;;18.35;16.55;;;;;;;;;;5062366;28;20039;-31
2022/06/01 07:02:54;;;;;;;19.30;17.30;;;;;;;;;;5077722;28;20434;-33
2022/06/01 07:08:07;;;;;;;19.55;17.45;;;;;;;;;;5075966;28;20033;-31
2022/06/01 07:10:33;;;;;;;17.88;16.13;;;;;;;;;;5058444;28;20064;-36
2022/06/01 07:13:00;;;;;;;19.23;17.20;;;;;;;;;;5071239;28;20031;-34
2022/06/01 07:15:26;;;;;;;19.00;17.15;;;;;;;;;;5064726;28;20050;-34
2022/06/01 07:17:52;;;;;;;17.23;15.60;;;;;;;;;;5083011;28;20036;-34
2022/06/01 07:20:19;;;;;;;16.48;14.95;;;;;;;;;;5069842;28;20056;-33
2022/06/01 07:22:45;;;;;;;16.17;14.77;;;;;;;;;;5064697;28;20109;-29
2022/06/01 07:25:11;;;;;;;16.67;15.18;;;;;;;;;;5080897;28;20054;-31
2022/06/01 07:27:37;;;;;;;16.05;14.52;;;;;;;;;;5076492;28;20037;-31
2022/06/01 07:30:04;;;;;;;16.25;14.65;;;;;;;;;;5076202;28;20040;-31
2022/06/01 07:32:30;;;;;;;16.10;14.65;;;;;;;;;;5075092;28;20115;-31
2022/06/01 07:34:56;;;;;;;16.92;15.25;;;;;;;;;;5083145;28;20036;-34
2022/06/01 07:43:06;;;;;;;16.00;14.50;;;;;;;;;;5064205;28;20040;-34
2022/06/01 07:45:35;;;;;;;18.75;16.73;;;;;;;;;;5068628;28;20119;-33
2022/06/01 07:48:02;;;;;;;16.10;14.52;;;;;;;;;;5067536;28;20032;-30
2022/06/01 07:50:29;;;;;;;14.10;12.85;;;;;;;;;;5077604;28;20394;-36
2022/06/01 07:52:55;;;;;;;12.25;11.05;;;;;;;;;;5077523;28;20032;-31
2022/06/01 07:55:21;;;;;;;14.43;13.02;;;;;;;;;;5072941;28;20032;-32
2022/06/01 07:57:47;;;;;;;12.98;11.88;;;;;;;;;;5072604;28;20101;-35
2022/06/01 08:00:14;;;;;;;13.32;12.02;;;;;;;;;;5066235;28;20045;-31
2022/06/01 08:02:40;;;;;;;12.02;10.88;;;;;;;;;;5083262;28;20036;-32
2022/06/01 08:05:07;;;;;;;11.85;10.70;;;;;;;;;;5078184;28;20140;-31
2022/06/01 08:07:33;;;;;;;11.30;10.30;;;;;;;;;;5079635;28;20490;-33
2022/06/01 08:10:00;;;;;;;9.18;8.38;;;;;;;;;;5065404;28;20048;-33
2022/06/01 08:15:12;;;;;;;8.90;8.20;;;;;;;;;;5068746;28;20079;-33
2022/06/01 08:17:38;;;;;;;10.50;9.48;;;;;;;;;;5071716;28;20042;-35
2022/06/01 08:20:04;;;;;;;10.23;9.23;;;;;;;;;;5063350;28;20506;-35
2022/06/01 08:22:30;;;;;;;9.90;8.70;;;;;;;;;;5074299;28;20494;-33
2022/06/01 08:24:56;;;;;;;9.20;8.40;;;;;;;;;;5076476;28;20045;-32
2022/06/01 08:27:23;;;;;;;7.78;7.07;;;;;;;;;;5068655;28;20051;-32
2022/06/01 08:29:49;;;;;;;7.93;7.22;;;;;;;;;;5081125;28;20482;-33
2022/06/01 08:32:15;;;;;;;8.48;6.55;;;;;;;;;;5079419;28;20040;-32
2022/06/01 08:34:41;;;;;;;7.57;6.97;;;;;;;;;;5076492;28;20494;-33
2022/06/01 08:37:07;;;;;;;6.07;5.57;;;;;;;;;;5072847;28;20045;-32
2022/06/01 08:39:33;;;;;;;1.73;1.63;;;;;;;;;;5073149;28;20043;-30
2022/06/01 08:42:01;;;;;;;2.85;2.42;;;;;;;;;;5075634;28;20041;-33
2022/06/01 08:44:32;;;;;;;2.65;2.10;;;;;;;;;;5078090;28;20040;-33
2022/06/01 08:47:02;;;;;;;3.20;1.92;;;;;;;;;;5073621;28;20040;-31
2022/06/01 08:49:29;;;;;;;2.80;1.65;;;;;;;;;;5071196;28;20033;-33
2022/06/01 08:51:55;;;;;;;2.10;1.60;;;;;;;;;;5058346;28;20037;-30
2022/06/01 08:54:22;;;;;;;2.28;1.55;;;;;;;;;;5053377;28;20044;-29
2022/06/01 08:56:50;;;;;;;2.20;1.70;;;;;;;;;;5053192;28;20045;-30
2022/06/01 08:59:23;;;;;;;1.75;1.60;;;;;;;;;;5052901;28;20483;-30
2022/06/01 09:01:55;;;;;;;1.48;1.30;;;;;;;;;;5052753;28;20449;-29
2022/06/01 09:04:35;;;;;;;1.52;1.15;;;;;;;;;;5052482;28;20051;-29
2022/06/01 09:07:22;;;;;;;2.20;1.83;;;;;;;;;;5053262;28;20068;-32
2022/06/01 09:10:07;;;;;;;2.92;1.67;;;;;;;;;;5071227;28;20060;-32
2022/06/01 09:12:34;;;;;;;1.98;1.50;;;;;;;;;;5066214;28;20067;-32
2022/06/01 09:15:06;;;;;;;2.30;1.45;;;;;;;;;;5074118;28;20036;-33
2022/06/01 09:17:33;;;;;;;2.15;1.70;;;;;;;;;;5071354;28;20133;-31
2022/06/01 09:22:45;;;;;;;2.08;1.65;;;;;;;;;;5073022;28;20045;-33
2022/06/01 09:25:14;;;;;;;1.40;1.30;;;;;;;;;;5076322;28;20120;-35
2022/06/01 09:27:59;;;;;;;1.58;1.40;;;;;;;;;;5074245;28;20040;-33
2022/06/01 09:30:38;;;;;;;1.60;1.42;;;;;;;;;;5075842;28;20124;-32
2022/06/01 09:33:23;;;;;;;1.30;1.20;;;;;;;;;;5080069;28;20038;-32
2022/06/01 09:36:01;;;;;;;2.35;1.30;;;;;;;;;;5071146;28;20036;-32
2022/06/01 09:38:36;;;;;;;1.88;1.63;;;;;;;;;;5072212;28;20040;-34
2022/06/01 09:41:07;;;;;;;2.35;1.77;;;;;;;;;;5071801;28;20041;-33
2022/06/01 09:43:34;;;;;;;2.08;1.98;;;;;;;;;;5081862;28;20116;-30
2022/06/01 09:46:00;;;;;;;1.60;1.50;;;;;;;;;;5092335;28;20035;-30
2022/06/01 09:48:29;;;;;;;1.63;1.52;;;;;;;;;;5092532;28;20113;-31
2022/06/01 09:50:58;;;;;;;2.78;1.65;;;;;;;;;;5092020;28;20040;-30
2022/06/01 09:53:30;;;;;;;1.65;1.42;;;;;;;;;;5092030;28;20032;-30
2022/06/01 09:55:58;;;;;;;1.50;1.40;;;;;;;;;;5090292;28;20544;-31
2022/06/01 10:07:01;;;;;;;1.60;1.50;;;;;;;;;;5051667;28;20055;-30
2022/06/01 10:09:28;;;;;;;2.38;1.50;;;;;;;;;;5051710;28;20083;-30
2022/06/01 10:11:55;;;;;;;1.60;1.23;;;;;;;;;;5051620;28;20045;-31
2022/06/01 10:14:24;;;;;;;2.13;0.98;;;;;;;;;;5051897;28;20497;-29
2022/06/01 10:16:54;;;;;;;2.50;1.20;;;;;;;;;;5051740;28;20037;-31
2022/06/01 10:19:23;;;;;;;1.33;1.17;;;;;;;;;;5051525;28;20052;-30
2022/06/01 10:22:08;;;;;;;2.67;0.90;;;;;;;;;;5051615;28;20170;-29
2022/06/01 10:24:37;;;;;;;0.60;0.60;;;;;;;;;;5051476;28;20045;-34
2022/06/01 10:27:03;;;;;;;1.05;0.85;;;;;;;;;;5066497;28;20110;-30
2022/06/01 10:29:39;;;;;;;1.60;0.80;;;;;;;;;;5079082;28;20032;-32
2022/06/01 10:32:09;;;;;;;0.55;0.55;;;;;;;;;;5068929;28;20530;-33
2022/06/01 10:34:59;;;;;;;0.60;0.50;;;;;;;;;;5065546;28;20070;-32
2022/06/01 10:37:31;;;;;;;1.42;0.60;;;;;;;;;;5057299;28;20581;-36
2022/06/01 10:40:09;;;;;;;1.27;0.70;;;;;;;;;;5078391;28;20093;-35
2022/06/01 10:45:21;;;;;;;2.40;0.85;;;;;;;;;;5067583;28;20053;-34
2022/06/01 10:47:56;;;;;;;0.60;0.60;;;;;;;;;;5078712;28;20035;-34
2022/06/01 10:50:32;;;;;;;1.15;0.60;;;;;;;;;;5076545;28;20029;-35
2022/06/01 10:53:18;;;;;;;1.00;0.85;;;;;;;;;;5052094;28;20029;-33
2022/06/01 10:55:45;;;;;;;0.85;0.85;;;;;;;;;;5072348;28;20044;-33
2022/06/01 10:58:18;;;;;;;0.95;0.70;;;;;;;;;;5067925;28;20041;-33
2022/06/01 11:01:01;;;;;;;1.15;0.93;;;;;;;;;;5063075;28;20032;-36
2022/06/01 11:03:30;;;;;;;1.50;0.85;;;;;;;;;;5072549;28;20085;-33
2022/06/01 11:06:08;;;;;;;1.35;0.75;;;;;;;;;;5068344;28;20494;-33
2022/06/01 11:08:34;;;;;;;1.40;1.30;;;;;;;;;;5073675;28;20071;-33
2022/06/01 11:11:04;;;;;;;1.60;1.50;;;;;;;;;;5080609;28;20043;-36
2022/06/01 11:13:46;;;;;;;2.17;1.40;;;;;;;;;;5071081;28;20051;-33
2022/06/01 11:16:20;;;;;;;1.90;1.70;;;;;;;;;;5068738;28;20048;-32
2022/06/01 11:18:57;;;;;;;9.75;3.22;;;;;;;;;;5071906;28;20056;-31
2022/06/01 11:21:31;;;;;;;5.90;2.63;;;;;;;;;;5074009;28;20040;-33
2022/06/01 11:24:23;;;;;;;5.00;3.10;;;;;;;;;;5063610;28;20037;-33
2022/06/01 11:27:02;;;;;;;4.07;2.97;;;;;;;;;;5072970;28;20033;-34
2022/06/01 11:29:46;;;;;;;4.15;2.70;;;;;;;;;;5071437;28;20470;-34
2022/06/01 11:32:15;;;;;;;3.53;2.60;;;;;;;;;;5065137;28;20037;-34
2022/06/01 11:34:52;;;;;;;2.50;2.30;;;;;;;;;;5079646;28;20440;-32
2022/06/01 11:37:30;;;;;;;2.85;2.50;;;;;;;;;;5058831;28;20036;-33
2022/06/01 11:40:28;;;;;;;3.63;3.28;;;;;;;;;;5065646;28;20472;-35
2022/06/01 11:42:58;;;;;;;3.78;2.88;;;;;;;;;;5051925;28;20043;-33
2022/06/01 11:45:27;;;;;;;3.70;3.40;;;;;;;;;;5072967;28;20119;-34
2022/06/01 11:47:55;;;;;;;4.35;3.97;;;;;;;;;;5069763;28;20089;-32
2022/06/01 11:50:24;;;;;;;3.67;3.38;;;;;;;;;;5076527;28;20029;-33
2022/06/01 11:52:56;;;;;;;4.55;3.97;;;;;;;;;;5074259;28;20573;-33
2022/06/01 11:55:36;;;;;;;5.10;4.18;;;;;;;;;;5074479;28;20028;-34
2022/06/01 11:58:09;;;;;;;4.85;4.25;;;;;;;;;;5081808;28;20393;-33
2022/06/01 12:00:40;;;;;;;5.00;4.60;;;;;;;;;;5073016;28;20082;-33
2022/06/01 12:03:16;;;;;;;6.60;5.95;;;;;;;;;;5061844;28;20045;-34
2022/06/01 12:05:57;;;;;;;2.40;2.20;;;;;;;;;;5084655;28;20118;-36
2022/06/01 12:08:26;;;;;;;1.92;1.83;;;;;;;;;;5072456;28;20044;-33
2022/06/01 12:10:54;;;;;;;2.45;2.08;;;;;;;;;;5078740;28;20044;-34
2022/06/01 12:13:24;;;;;;;2.08;1.65;;;;;;;;;;5072907;28;20037;-34
2022/06/01 12:16:09;;;;;;;1.50;1.40;;;;;;;;;;5076962;28;20039;-33
2022/06/01 12:18:36;;;;;;;1.73;1.48;;;;;;;;;;5067723;28;20031;-33
2022/06/01 12:21:19;;;;;;;1.48;1.27;;;;;;;;;;5085552;28;20118;-34
2022/06/01 12:29:30;;;;;;;0.70;0.70;;;;;;;;;;5071583;28;20037;-34
2022/06/01 12:31:56;;;;;;;0.93;0.90;;;;;;;;;;5075425;28;20029;-32
2022/06/01 12:34:34;;;;;;;1.52;0.80;;;;;;;;;;5077444;28;20371;-34
2022/06/01 12:37:10;;;;;;;0.75;0.75;;;;;;;;;;5069836;28;20043;-32
2022/06/01 12:39:39;;;;;;;0.65;0.65;;;;;;;;;;5060450;28;20040;-32
2022/06/01 12:42:06;;;;;;;0.55;0.55;;;;;;;;;;5066057;28;20072;-34
2022/06/01 12:44:34;;;;;;;0.70;0.63;;;;;;;;;;5056210;28;20090;-34
2022/06/01 12:47:00;;;;;;;0.60;0.60;;;;;;;;;;5084998;28;20177;-34
2022/06/01 12:49:36;;;;;;;0.85;0.65;;;;;;;;;;5074478;28;20072;-35
2022/06/01 12:52:10;;;;;;;0.80;0.80;;;;;;;;;;5069042;28;20033;-35
2022/06/01 12:54:39;;;;;;;0.80;0.80;;;;;;;;;;5073979;28;20033;-33
2022/06/01 12:57:07;;;;;;;1.10;0.90;;;;;;;;;;5074398;28;20063;-32
2022/06/01 12:59:35;;;;;;;0.68;0.68;;;;;;;;;;5070593;28;20048;-35
2022/06/01 13:02:04;;;;;;;0.90;0.90;;;;;;;;;;5066085;28;20048;-34
2022/06/01 13:04:31;;;;;;;0.90;0.90;;;;;;;;;;5072873;28;20043;-34
2022/06/01 13:06:57;;;;;;;1.13;1.13;;;;;;;;;;5058999;28;20037;-32
2022/06/01 13:09:25;;;;;;;1.67;1.10;;;;;;;;;;5066419;28;20041;-33
2022/06/01 13:12:02;;;;;;;1.40;1.30;;;;;;;;;;5074746;28;20044;-35
2022/06/01 13:14:29;;;;;;;1.40;1.30;;;;;;;;;;5069439;28;20039;-33
2022/06/01 13:16:59;;;;;;;1.00;1.00;;;;;;;;;;5083632;28;20105;-35
2022/06/01 13:19:26;;;;;;;1.52;1.42;;;;;;;;;;5066201;28;20033;-33
2022/06/01 13:22:01;;;;;;;1.73;1.63;;;;;;;;;;5079827;28;20502;-32
2022/06/01 13:24:29;;;;;;;1.67;1.42;;;;;;;;;;5081352;28;20063;-33
2022/06/01 13:26:57;;;;;;;2.63;1.70;;;;;;;;;;5079531;28;20108;-36
2022/06/01 13:29:27;;;;;;;1.50;1.40;;;;;;;;;;5084498;28;20051;-32
2022/06/01 13:31:54;;;;;;;1.80;1.70;;;;;;;;;;5060171;28;20506;-33
2022/06/01 13:34:23;;;;;;;1.65;1.52;;;;;;;;;;5078189;28;20137;-31
2022/06/01 13:36:50;;;;;;;2.03;1.73;;;;;;;;;;5070557;28;20033;-32
2022/06/01 13:39:16;;;;;;;1.80;1.70;;;;;;;;;;5086625;28;20046;-34
2022/06/01 13:41:53;;;;;;;1.65;1.55;;;;;;;;;;5068944;28;20071;-34
2022/06/01 13:44:38;;;;;;;1.58;1.45;;;;;;;;;;5071330;28;20076;-34
2022/06/01 13:47:04;;;;;;;1.83;1.70;;;;;;;;;;5084331;28;20036;-32
2022/06/01 13:49:30;;;;;;;1.48;1.38;;;;;;;;;;5067802;28;20052;-33
2022/06/01 13:51:58;;;;;;;1.65;1.50;;;;;;;;;;5072347;28;20037;-33
2022/06/01 13:54:27;;;;;;;1.40;1.30;;;;;;;;;;5067284;28;20052;-34
2022/06/01 13:57:02;;;;;;;1.65;1.45;;;;;;;;;;5068454;28;20037;-34
2022/06/01 13:59:29;;;;;;;1.15;1.10;;;;;;;;;;5076385;28;20032;-33
2022/06/01 14:01:56;;;;;;;1.00;0.90;;;;;;;;;;5070964;28;20042;-32
2022/06/01 14:04:23;;;;;;;0.88;0.88;;;;;;;;;;5077307;28;20094;-33
2022/06/01 14:06:56;;;;;;;1.15;1.05;;;;;;;;;;5083660;28;20040;-34
2022/06/01 14:09:24;;;;;;;0.98;0.93;;;;;;;;;;5078718;28;20051;-33
2022/06/01 14:11:51;;;;;;;1.25;1.15;;;;;;;;;;5066931;28;20056;-35
2022/06/01 14:14:18;;;;;;;1.05;1.00;;;;;;;;;;5071558;28;20119;-32
2022/06/01 14:16:49;;;;;;;1.10;0.90;;;;;;;;;;5066665;28;20101;-32
2022/06/01 14:19:16;;;;;;;2.17;0.70;;;;;;;;;;5080580;28;20047;-33
2022/06/01 14:21:42;;;;;;;1.55;0.90;;;;;;;;;;5068722;28;20028;-33
2022/06/01 14:24:08;;;;;;;1.02;0.90;;;;;;;;;;5081897;28;20035;-33
2022/06/01 14:29:30;;;;;;;0.80;0.80;;;;;;;;;;5053595;28;20073;-34
2022/06/01 14:31:57;;;;;;;1.50;0.75;;;;;;;;;;5071179;28;20037;-33
2022/06/01 14:34:24;;;;;;;3.28;0.80;;;;;;;;;;5077031;28;20040;-33
2022/06/01 14:36:51;;;;;;;1.38;0.82;;;;;;;;;;5069948;28;20044;-34
2022/06/01 14:39:19;;;;;;;0.68;0.68;;;;;;;;;;5071860;28;20493;-34
2022/06/01 14:41:46;;;;;;;0.60;0.60;;;;;;;;;;5069875;28;20036;-34
2022/06/01 14:44:16;;;;;;;1.15;0.77;;;;;;;;;;5067984;28;20414;-38
2022/06/01 14:46:42;;;;;;;0.80;0.60;;;;;;;;;;5078303;28;20036;-32
2022/06/01 14:49:09;;;;;;;0.80;0.80;;;;;;;;;;5065179;28;20048;-37
2022/06/01 14:51:36;;;;;;;1.38;1.00;;;;;;;;;;5073698;28;20032;-33
2022/06/01 14:54:04;;;;;;;0.70;0.70;;;;;;;;;;5068327;28;20043;-33
2022/06/01 14:56:30;;;;;;;0.88;0.68;;;;;;;;;;5068485;28;20036;-35
2022/06/01 14:59:00;;;;;;;0.50;0.50;;;;;;;;;;5075101;28;20036;-34
2022/06/01 15:01:32;;;;;;;0.52;0.52;;;;;;;;;;5065459;28;20055;-33
2022/06/01 15:04:00;;;;;;;0.80;0.70;;;;;;;;;;5060579;28;20041;-37
2022/06/01 15:06:26;;;;;;;1.13;0.70;;;;;;;;;;5071339;28;20524;-34
2022/06/01 15:08:53;;;;;;;1.35;0.65;;;;;;;;;;5066504;28;20406;-33
2022/06/01 15:11:19;;;;;;;1.10;1.00;;;;;;;;;;5069009;28;20041;-32
2022/06/01 15:13:45;;;;;;;0.73;0.73;;;;;;;;;;5067743;28;20496;-33
2022/06/01 15:16:11;;;;;;;2.03;0.80;;;;;;;;;;5071980;28;20042;-35
2022/06/01 15:18:40;;;;;;;0.60;0.60;;;;;;;;;;5074500;28;20067;-33
2022/06/01 15:21:06;;;;;;;0.70;0.70;;;;;;;;;;5073865;28;20176;-33